Latest Weather Observations for Melville Water

IDW60801

Issued at 11:34 am WST Wednesday 18 January 2017 (issued every 30 minutes, with the page automatically refreshed every 10 minutes)

About weather observations | Map of weather stations | Latest weather observations for WA | Other Formats
Station Details ID: 009091 Name: INNER DOLPHIN PYLON Lat: -31.99 Lon: 115.83 Height: 0.0 m
Data from the previous 72 hours. | See also: Recent months at Melville Water
Date/Time
WST
Temp
°C
App
Temp
°C
Dew
Point
°C
Rel
Hum
%
Delta-T
°C
Wind Press
QNH
hPa
Press
MSL
hPa
Rain since
9am
mm
Dir  Spd
km/h
Gust
km/h
Spd
kts
Gust
kts
18/11:30am - - - - - NE 17 24 9 13 - - -
18/11:00am - - - - - NE 17 26 9 14 - - -
18/10:30am - - - - - NE 20 26 11 14 - - -
18/10:00am - - - - - ENE 24 33 13 18 - - -
18/09:30am - - - - - ENE 22 32 12 17 - - -
18/09:00am - - - - - ENE 26 35 14 19 - - -
18/08:30am - - - - - ENE 28 37 15 20 - - -
18/08:00am - - - - - ENE 30 43 16 23 - - -
18/07:30am - - - - - ENE 32 46 17 25 - - -
18/07:00am - - - - - ENE 30 39 16 21 - - -
18/06:30am - - - - - ENE 30 43 16 23 - - -
18/06:00am - - - - - ENE 32 44 17 24 - - -
18/05:30am - - - - - ENE 32 46 17 25 - - -
18/05:00am - - - - - E 30 43 16 23 - - -
18/04:30am - - - - - E 28 37 15 20 - - -
18/04:00am - - - - - E 24 32 13 17 - - -
18/03:30am - - - - - E 26 37 14 20 - - -
18/03:00am - - - - - E 24 35 13 19 - - -
18/02:30am - - - - - E 28 39 15 21 - - -
18/02:00am - - - - - E 26 43 14 23 - - -
18/01:30am - - - - - E 32 43 17 23 - - -
18/01:00am - - - - - E 30 41 16 22 - - -
18/12:30am - - - - - E 30 44 16 24 - - -
18/12:17am - - - - - E 28 46 15 25 - - -
18/12:00am - - - - - E 28 41 15 22 - - -
 
Date/Time
WST
Temp
°C
App
Temp
°C
Dew
Point
°C
Rel
Hum
%
Delta-T
°C
Wind Press
QNH
hPa
Press
MSL
hPa
Rain since
9am
mm
Dir  Spd
km/h
Gust
km/h
Spd
kts
Gust
kts
17/11:30pm - - - - - E 24 35 13 19 - - -
17/11:00pm - - - - - ESE 19 24 10 13 - - -
17/10:30pm - - - - - SE 9 11 5 6 - - -
17/10:00pm - - - - - SSE 7 9 4 5 - - -
17/09:30pm - - - - - SSE 7 11 4 6 - - -
17/09:00pm - - - - - S 7 9 4 5 - - -
17/08:30pm - - - - - SSW 13 17 7 9 - - -
17/08:00pm - - - - - SSW 17 22 9 12 - - -
17/07:30pm - - - - - SSW 17 19 9 10 - - -
17/07:00pm - - - - - SSW 22 26 12 14 - - -
17/06:30pm - - - - - SSW 28 33 15 18 - - -
17/06:00pm - - - - - SSW 32 39 17 21 - - -
17/05:30pm - - - - - SSW 30 35 16 19 - - -
17/05:00pm - - - - - SSW 32 39 17 21 - - -
17/04:30pm - - - - - SSW 32 37 17 20 - - -
17/04:00pm - - - - - SW 28 33 15 18 - - -
17/03:30pm - - - - - SW 32 39 17 21 - - -
17/03:00pm - - - - - SW 26 33 14 18 - - -
17/02:49pm - - - - - SW 28 37 15 20 - - -
17/02:30pm - - - - - S 9 17 5 9 - - -
17/02:00pm - - - - - SSE 13 35 7 19 - - -
17/01:30pm - - - - - SE 13 24 7 13 - - -
17/01:00pm - - - - - SSE 17 28 9 15 - - -
17/12:30pm - - - - - ESE 11 24 6 13 - - -
17/12:00pm - - - - - SSE 17 24 9 13 - - -
17/11:30am - - - - - SE 15 24 8 13 - - -
17/11:00am - - - - - ESE 19 28 10 15 - - -
17/10:30am - - - - - SE 19 30 10 16 - - -
17/10:00am - - - - - ESE 17 24 9 13 - - -
17/09:30am - - - - - SE 19 30 10 16 - - -
17/09:00am - - - - - ESE 17 30 9 16 - - -
17/08:30am - - - - - ESE 24 32 13 17 - - -
17/08:00am - - - - - ESE 24 33 13 18 - - -
17/07:30am - - - - - SE 22 28 12 15 - - -
17/07:00am - - - - - SE 22 30 12 16 - - -
17/06:30am - - - - - SE 19 26 10 14 - - -
17/06:00am - - - - - SE 17 22 9 12 - - -
17/05:30am - - - - - ESE 19 22 10 12 - - -
17/05:00am - - - - - ESE 20 26 11 14 - - -
17/04:30am - - - - - SE 26 33 14 18 - - -
17/04:00am - - - - - SE 30 35 16 19 - - -
17/03:30am - - - - - SE 30 39 16 21 - - -
17/03:00am - - - - - ESE 24 30 13 16 - - -
17/02:30am - - - - - SE 26 37 14 20 - - -
17/02:00am - - - - - ESE 26 35 14 19 - - -
17/01:30am - - - - - ESE 26 35 14 19 - - -
17/01:00am - - - - - SE 17 20 9 11 - - -
17/12:30am - - - - - SSE 19 24 10 13 - - -
17/12:00am - - - - - S 19 26 10 14 - - -
 
Date/Time
WST
Temp
°C
App
Temp
°C
Dew
Point
°C
Rel
Hum
%
Delta-T
°C
Wind Press
QNH
hPa
Press
MSL
hPa
Rain since
9am
mm
Dir  Spd
km/h
Gust
km/h
Spd
kts
Gust
kts
16/11:30pm - - - - - S 26 30 14 16 - - -
16/11:00pm - - - - - S 28 35 15 19 - - -
16/10:30pm - - - - - S 26 35 14 19 - - -
16/10:00pm - - - - - S 20 28 11 15 - - -
16/09:30pm - - - - - S 26 35 14 19 - - -
16/09:00pm - - - - - SSW 28 35 15 19 - - -
16/08:30pm - - - - - SSW 30 39 16 21 - - -
16/08:00pm - - - - - SSW 33 44 18 24 - - -
16/07:30pm - - - - - SSW 37 52 20 28 - - -
16/07:00pm - - - - - SSW 37 52 20 28 - - -
16/06:30pm - - - - - SSW 43 52 23 28 - - -
16/06:00pm - - - - - SSW 43 54 23 29 - - -
16/05:30pm - - - - - SSW 41 50 22 27 - - -
16/05:00pm - - - - - SSW 43 54 23 29 - - -
16/04:30pm - - - - - SSW 44 57 24 31 - - -
16/04:00pm - - - - - SSW 43 54 23 29 - - -
16/03:30pm - - - - - SSW 44 54 24 29 - - -
16/03:00pm - - - - - SSW 44 54 24 29 - - -
16/02:30pm - - - - - SSW 41 50 22 27 - - -
16/02:00pm - - - - - SSW 39 46 21 25 - - -
16/01:30pm - - - - - SSW 39 50 21 27 - - -
16/01:00pm - - - - - SSW 39 46 21 25 - - -
16/12:30pm - - - - - SW 37 44 20 24 - - -
16/12:00pm - - - - - SW 35 43 19 23 - - -
16/11:30am - - - - - SW 32 39 17 21 - - -
16/11:00am - - - - - SSW 32 39 17 21 - - -
16/10:30am - - - - - SW 30 37 16 20 - - -
16/10:00am - - - - - S 24 32 13 17 - - -
16/09:30am - - - - - S 22 32 12 17 - - -
16/09:00am - - - - - S 19 28 10 15 - - -
16/08:30am - - - - - SSE 19 26 10 14 - - -
16/08:00am - - - - - SSE 22 32 12 17 - - -
16/07:30am - - - - - S 24 32 13 17 - - -
16/07:00am - - - - - S 24 32 13 17 - - -
16/06:30am - - - - - S 24 30 13 16 - - -
16/06:00am - - - - - S 22 28 12 15 - - -
16/05:30am - - - - - S 20 24 11 13 - - -
16/05:00am - - - - - S 22 26 12 14 - - -
16/04:30am - - - - - S 20 26 11 14 - - -
16/04:00am - - - - - S 20 24 11 13 - - -
16/03:30am - - - - - S 24 28 13 15 - - -
16/03:00am - - - - - S 22 28 12 15 - - -
16/02:30am - - - - - S 22 28 12 15 - - -
16/02:00am - - - - - S 19 26 10 14 - - -
16/01:30am - - - - - S 19 22 10 12 - - -
16/01:00am - - - - - S 17 20 9 11 - - -
16/12:30am - - - - - S 17 22 9 12 - - -
16/12:00am - - - - - S 17 20 9 11 - - -
 
Date/Time
WST
Temp
°C
App
Temp
°C
Dew
Point
°C
Rel
Hum
%
Delta-T
°C
Wind Press
QNH
hPa
Press
MSL
hPa
Rain since
9am
mm
Dir  Spd
km/h
Gust
km/h
Spd
kts
Gust
kts
15/11:30pm - - - - - S 19 24 10 13 - - -
15/11:00pm - - - - - S 22 32 12 17 - - -
15/10:30pm - - - - - SSW 20 26 11 14 - - -
15/10:00pm - - - - - SSW 24 30 13 16 - - -
15/09:30pm - - - - - SSW 26 33 14 18 - - -
15/09:00pm - - - - - SSW 32 41 17 22 - - -
15/08:30pm - - - - - SSW 32 41 17 22 - - -
15/08:00pm - - - - - SSW 32 39 17 21 - - -
15/07:30pm - - - - - SSW 37 46 20 25 - - -
15/07:00pm - - - - - SSW 35 46 19 25 - - -
15/06:30pm - - - - - SSW 32 39 17 21 - - -
15/06:00pm - - - - - SW 30 37 16 20 - - -
15/05:30pm - - - - - SW 30 37 16 20 - - -
15/05:00pm - - - - - SSW 33 43 18 23 - - -
15/04:30pm - - - - - SSW 35 41 19 22 - - -
15/04:00pm - - - - - SW 35 41 19 22 - - -
15/03:30pm - - - - - SW 30 35 16 19 - - -
15/03:00pm - - - - - SW 30 35 16 19 - - -
15/02:30pm - - - - - SSW 30 37 16 20 - - -
15/02:00pm - - - - - SW 24 32 13 17 - - -
15/01:30pm - - - - - SW 24 28 13 15 - - -
15/01:00pm - - - - - SW 24 28 13 15 - - -
15/12:30pm - - - - - SW 20 24 11 13 - - -
15/12:00pm - - - - - SW 20 24 11 13 - - -

Other Formats:

Comma delimited format used in spreadsheet applications
http://www.bom.gov.au/fwo/IDW60801/IDW60801.95620.axf

JavaScript Object Notation format (JSON) in row-major order
http://www.bom.gov.au/fwo/IDW60801/IDW60801.95620.json